sensor_id;sensor_type;location;lat;lon;timestamp;pressure;altitude;pressure_sealevel;temperature;humidity
10014;BME280;45684;48.358;10.746;2023-08-12T00:00:25;96576.34;;;19.25;100.00
10014;BME280;45684;48.358;10.746;2023-08-12T00:02:53;96570.50;;;19.26;100.00
10014;BME280;45684;48.358;10.746;2023-08-12T00:05:21;96568.19;;;19.28;100.00
10014;BME280;45684;48.358;10.746;2023-08-12T00:07:49;96570.06;;;19.24;100.00
10014;BME280;45684;48.358;10.746;2023-08-12T00:10:17;96569.66;;;19.22;100.00
10014;BME280;45684;48.358;10.746;2023-08-12T00:12:45;96569.19;;;19.20;100.00
10014;BME280;45684;48.358;10.746;2023-08-12T00:15:14;96569.94;;;19.17;100.00
10014;BME280;45684;48.358;10.746;2023-08-12T00:17:42;96565.09;;;19.10;100.00
10014;BME280;45684;48.358;10.746;2023-08-12T00:20:11;96568.59;;;19.07;100.00
10014;BME280;45684;48.358;10.746;2023-08-12T00:22:39;96564.22;;;19.06;100.00
10014;BME280;45684;48.358;10.746;2023-08-12T00:25:08;96566.19;;;19.06;100.00
10014;BME280;45684;48.358;10.746;2023-08-12T00:27:36;96563.66;;;18.97;100.00
10014;BME280;45684;48.358;10.746;2023-08-12T00:30:06;96564.69;;;18.89;100.00
10014;BME280;45684;48.358;10.746;2023-08-12T00:32:35;96565.31;;;18.82;100.00
10014;BME280;45684;48.358;10.746;2023-08-12T00:35:04;96561.28;;;18.76;100.00
10014;BME280;45684;48.358;10.746;2023-08-12T00:37:33;96560.94;;;18.62;100.00
10014;BME280;45684;48.358;10.746;2023-08-12T00:40:00;96558.63;;;18.64;100.00
10014;BME280;45684;48.358;10.746;2023-08-12T00:42:30;96558.56;;;18.60;100.00
10014;BME280;45684;48.358;10.746;2023-08-12T00:44:58;96559.09;;;18.50;100.00
10014;BME280;45684;48.358;10.746;2023-08-12T00:47:28;96550.91;;;18.50;100.00
10014;BME280;45684;48.358;10.746;2023-08-12T00:49:58;96544.44;;;18.58;100.00
10014;BME280;45684;48.358;10.746;2023-08-12T00:52:26;96539.13;;;18.66;100.00
10014;BME280;45684;48.358;10.746;2023-08-12T00:54:55;96550.00;;;18.62;100.00
10014;BME280;45684;48.358;10.746;2023-08-12T00:57:23;96542.84;;;18.57;100.00
10014;BME280;45684;48.358;10.746;2023-08-12T00:59:51;96541.88;;;18.50;100.00
10014;BME280;45684;48.358;10.746;2023-08-12T01:02:19;96535.19;;;18.47;100.00
10014;BME280;45684;48.358;10.746;2023-08-12T01:04:46;96531.88;;;18.38;100.00
10014;BME280;45684;48.358;10.746;2023-08-12T01:07:16;96537.41;;;18.42;100.00
10014;BME280;45684;48.358;10.746;2023-08-12T01:09:44;96529.47;;;18.36;100.00
10014;BME280;45684;48.358;10.746;2023-08-12T01:12:13;96521.25;;;18.36;100.00
10014;BME280;45684;48.358;10.746;2023-08-12T01:14:53;96522.03;;;18.37;100.00
10014;BME280;45684;48.358;10.746;2023-08-12T01:17:23;96518.50;;;18.36;100.00
10014;BME280;45684;48.358;10.746;2023-08-12T01:19:54;96518.38;;;18.29;100.00
10014;BME280;45684;48.358;10.746;2023-08-12T01:22:25;96513.47;;;18.03;100.00
10014;BME280;45684;48.358;10.746;2023-08-12T01:24:55;96506.97;;;17.92;100.00
10014;BME280;45684;48.358;10.746;2023-08-12T01:27:23;96512.69;;;17.71;100.00
10014;BME280;45684;48.358;10.746;2023-08-12T01:29:51;96516.31;;;17.59;100.00
10014;BME280;45684;48.358;10.746;2023-08-12T01:32:25;96508.69;;;17.53;100.00
10014;BME280;45684;48.358;10.746;2023-08-12T01:34:58;96506.78;;;17.53;100.00
10014;BME280;45684;48.358;10.746;2023-08-12T01:37:30;96507.22;;;17.55;100.00
10014;BME280;45684;48.358;10.746;2023-08-12T01:40:02;96497.06;;;17.56;100.00
10014;BME280;45684;48.358;10.746;2023-08-12T01:42:32;96502.91;;;17.54;100.00
10014;BME280;45684;48.358;10.746;2023-08-12T01:45:01;96504.56;;;17.59;100.00
10014;BME280;45684;48.358;10.746;2023-08-12T01:47:29;96499.00;;;17.55;100.00
10014;BME280;45684;48.358;10.746;2023-08-12T01:49:58;96491.78;;;17.47;100.00
10014;BME280;45684;48.358;10.746;2023-08-12T01:52:26;96484.47;;;17.83;100.00
10014;BME280;45684;48.358;10.746;2023-08-12T01:54:54;96483.22;;;17.96;100.00
10014;BME280;45684;48.358;10.746;2023-08-12T01:57:23;96485.31;;;18.03;100.00
10014;BME280;45684;48.358;10.746;2023-08-12T01:59:51;96487.09;;;17.95;100.00
10014;BME280;45684;48.358;10.746;2023-08-12T02:02:19;96493.72;;;17.63;100.00
10014;BME280;45684;48.358;10.746;2023-08-12T02:04:47;96491.97;;;17.54;100.00
10014;BME280;45684;48.358;10.746;2023-08-12T02:07:15;96495.91;;;17.57;100.00
10014;BME280;45684;48.358;10.746;2023-08-12T02:09:43;96489.50;;;17.49;100.00
10014;BME280;45684;48.358;10.746;2023-08-12T02:12:11;96497.75;;;17.53;100.00
10014;BME280;45684;48.358;10.746;2023-08-12T02:14:40;96495.50;;;17.55;100.00
10014;BME280;45684;48.358;10.746;2023-08-12T02:17:08;96499.91;;;17.59;100.00
10014;BME280;45684;48.358;10.746;2023-08-12T02:19:37;96496.91;;;17.49;100.00
10014;BME280;45684;48.358;10.746;2023-08-12T02:22:04;96501.38;;;17.57;100.00
10014;BME280;45684;48.358;10.746;2023-08-12T02:24:32;96492.06;;;17.58;100.00
10014;BME280;45684;48.358;10.746;2023-08-12T02:27:00;96493.19;;;17.57;100.00
10014;BME280;45684;48.358;10.746;2023-08-12T02:29:28;96485.44;;;17.59;100.00
10014;BME280;45684;48.358;10.746;2023-08-12T02:31:57;96478.44;;;17.62;100.00
10014;BME280;45684;48.358;10.746;2023-08-12T02:34:25;96485.44;;;17.59;100.00
10014;BME280;45684;48.358;10.746;2023-08-12T02:36:53;96480.50;;;17.49;100.00
10014;BME280;45684;48.358;10.746;2023-08-12T02:39:21;96478.91;;;17.32;100.00
10014;BME280;45684;48.358;10.746;2023-08-12T02:41:48;96478.44;;;17.14;100.00
10014;BME280;45684;48.358;10.746;2023-08-12T02:44:17;96472.19;;;17.29;100.00
10014;BME280;45684;48.358;10.746;2023-08-12T02:46:45;96467.00;;;17.40;100.00
10014;BME280;45684;48.358;10.746;2023-08-12T02:49:14;96469.63;;;17.37;100.00
10014;BME280;45684;48.358;10.746;2023-08-12T02:51:42;96472.38;;;17.37;100.00
10014;BME280;45684;48.358;10.746;2023-08-12T02:54:09;96473.69;;;17.43;100.00
10014;BME280;45684;48.358;10.746;2023-08-12T02:56:37;96470.84;;;17.39;100.00
10014;BME280;45684;48.358;10.746;2023-08-12T02:59:05;96472.97;;;17.14;100.00
10014;BME280;45684;48.358;10.746;2023-08-12T03:01:33;96469.72;;;17.24;100.00
10014;BME280;45684;48.358;10.746;2023-08-12T03:04:01;96471.22;;;17.22;100.00
10014;BME280;45684;48.358;10.746;2023-08-12T03:06:30;96467.25;;;17.19;100.00
10014;BME280;45684;48.358;10.746;2023-08-12T03:08:58;96469.44;;;17.14;100.00
10014;BME280;45684;48.358;10.746;2023-08-12T03:11:26;96464.66;;;17.11;100.00
10014;BME280;45684;48.358;10.746;2023-08-12T03:13:56;96471.44;;;16.85;100.00
10014;BME280;45684;48.358;10.746;2023-08-12T03:16:25;96474.56;;;16.59;100.00
10014;BME280;45684;48.358;10.746;2023-08-12T03:18:54;96466.38;;;16.59;100.00
10014;BME280;45684;48.358;10.746;2023-08-12T03:21:23;96465.09;;;16.69;100.00
10014;BME280;45684;48.358;10.746;2023-08-12T03:23:52;96466.84;;;16.61;100.00
10014;BME280;45684;48.358;10.746;2023-08-12T03:26:20;96472.75;;;16.63;100.00
10014;BME280;45684;48.358;10.746;2023-08-12T03:28:49;96472.41;;;16.65;100.00
10014;BME280;45684;48.358;10.746;2023-08-12T03:31:18;96475.81;;;16.62;100.00
10014;BME280;45684;48.358;10.746;2023-08-12T03:33:47;96475.38;;;16.59;100.00
10014;BME280;45684;48.358;10.746;2023-08-12T03:36:15;96473.88;;;16.34;100.00
10014;BME280;45684;48.358;10.746;2023-08-12T03:38:42;96462.59;;;16.36;100.00
10014;BME280;45684;48.358;10.746;2023-08-12T03:41:16;96467.16;;;16.31;100.00
10014;BME280;45684;48.358;10.746;2023-08-12T03:43:45;96463.72;;;16.47;100.00
10014;BME280;45684;48.358;10.746;2023-08-12T03:46:15;96461.97;;;16.54;100.00
10014;BME280;45684;48.358;10.746;2023-08-12T03:48:43;96469.56;;;16.61;100.00
10014;BME280;45684;48.358;10.746;2023-08-12T03:51:11;96467.16;;;16.59;100.00
10014;BME280;45684;48.358;10.746;2023-08-12T03:53:39;96472.84;;;16.67;100.00
10014;BME280;45684;48.358;10.746;2023-08-12T03:56:07;96472.31;;;16.61;100.00
10014;BME280;45684;48.358;10.746;2023-08-12T03:58:37;96471.41;;;16.57;100.00
10014;BME280;45684;48.358;10.746;2023-08-12T04:01:05;96473.00;;;16.58;100.00
10014;BME280;45684;48.358;10.746;2023-08-12T04:03:33;96473.09;;;16.62;100.00
10014;BME280;45684;48.358;10.746;2023-08-12T04:06:01;96474.53;;;16.43;100.00
10014;BME280;45684;48.358;10.746;2023-08-12T04:08:30;96473.28;;;16.41;100.00
10014;BME280;45684;48.358;10.746;2023-08-12T04:10:59;96473.66;;;16.55;100.00
10014;BME280;45684;48.358;10.746;2023-08-12T04:13:26;96467.50;;;16.30;100.00
10014;BME280;45684;48.358;10.746;2023-08-12T04:15:56;96471.75;;;16.55;100.00
10014;BME280;45684;48.358;10.746;2023-08-12T04:18:24;96472.63;;;16.59;100.00
10014;BME280;45684;48.358;10.746;2023-08-12T04:20:52;96464.28;;;16.68;100.00
10014;BME280;45684;48.358;10.746;2023-08-12T04:23:22;96471.44;;;16.45;100.00
10014;BME280;45684;48.358;10.746;2023-08-12T04:25:52;96465.47;;;16.55;100.00
10014;BME280;45684;48.358;10.746;2023-08-12T04:28:24;96474.25;;;16.61;100.00
10014;BME280;45684;48.358;10.746;2023-08-12T04:30:52;96468.84;;;16.64;100.00
10014;BME280;45684;48.358;10.746;2023-08-12T04:33:23;96467.81;;;16.81;100.00
10014;BME280;45684;48.358;10.746;2023-08-12T04:35:52;96466.81;;;16.73;100.00
10014;BME280;45684;48.358;10.746;2023-08-12T04:38:21;96465.50;;;16.83;100.00
10014;BME280;45684;48.358;10.746;2023-08-12T04:40:52;96463.41;;;16.92;100.00
10014;BME280;45684;48.358;10.746;2023-08-12T04:43:21;96475.75;;;17.02;100.00
10014;BME280;45684;48.358;10.746;2023-08-12T04:45:49;96465.66;;;17.18;100.00
10014;BME280;45684;48.358;10.746;2023-08-12T04:48:18;96469.44;;;17.29;100.00
10014;BME280;45684;48.358;10.746;2023-08-12T04:50:48;96468.94;;;17.40;100.00
10014;BME280;45684;48.358;10.746;2023-08-12T04:53:17;96458.19;;;17.31;100.00
10014;BME280;45684;48.358;10.746;2023-08-12T04:55:45;96450.94;;;17.39;100.00
10014;BME280;45684;48.358;10.746;2023-08-12T04:58:17;96447.94;;;17.44;100.00
10014;BME280;45684;48.358;10.746;2023-08-12T05:00:46;96459.75;;;17.48;100.00
10014;BME280;45684;48.358;10.746;2023-08-12T05:03:14;96452.16;;;17.57;100.00
10014;BME280;45684;48.358;10.746;2023-08-12T05:05:41;96461.88;;;17.54;100.00
10014;BME280;45684;48.358;10.746;2023-08-12T05:08:11;96451.72;;;17.55;100.00
10014;BME280;45684;48.358;10.746;2023-08-12T05:10:39;96457.63;;;17.73;100.00
10014;BME280;45684;48.358;10.746;2023-08-12T05:13:09;96457.09;;;17.83;100.00
10014;BME280;45684;48.358;10.746;2023-08-12T05:15:37;96457.03;;;17.79;100.00
10014;BME280;45684;48.358;10.746;2023-08-12T05:18:05;96460.03;;;17.74;100.00
10014;BME280;45684;48.358;10.746;2023-08-12T05:20:33;96458.59;;;17.80;100.00
10014;BME280;45684;48.358;10.746;2023-08-12T05:23:01;96458.88;;;17.91;100.00
10014;BME280;45684;48.358;10.746;2023-08-12T05:25:30;96455.59;;;17.85;100.00
10014;BME280;45684;48.358;10.746;2023-08-12T05:27:58;96451.38;;;17.72;100.00
10014;BME280;45684;48.358;10.746;2023-08-12T05:30:26;96457.47;;;17.81;100.00
10014;BME280;45684;48.358;10.746;2023-08-12T05:32:54;96445.72;;;17.81;100.00
10014;BME280;45684;48.358;10.746;2023-08-12T05:35:22;96456.47;;;17.90;100.00
10014;BME280;45684;48.358;10.746;2023-08-12T05:37:50;96446.16;;;17.83;100.00
10014;BME280;45684;48.358;10.746;2023-08-12T05:40:18;96452.91;;;18.05;100.00
10014;BME280;45684;48.358;10.746;2023-08-12T05:42:47;96454.31;;;18.15;100.00
10014;BME280;45684;48.358;10.746;2023-08-12T05:45:15;96457.28;;;18.45;100.00
10014;BME280;45684;48.358;10.746;2023-08-12T05:47:42;96449.00;;;18.60;100.00
10014;BME280;45684;48.358;10.746;2023-08-12T05:50:11;96457.00;;;18.89;100.00
10014;BME280;45684;48.358;10.746;2023-08-12T05:52:39;96448.22;;;19.02;100.00
10014;BME280;45684;48.358;10.746;2023-08-12T05:55:07;96456.59;;;19.32;100.00
10014;BME280;45684;48.358;10.746;2023-08-12T05:57:35;96456.66;;;19.59;100.00
10014;BME280;45684;48.358;10.746;2023-08-12T06:00:05;96450.00;;;19.83;100.00
10014;BME280;45684;48.358;10.746;2023-08-12T06:02:39;96449.50;;;20.04;100.00
10014;BME280;45684;48.358;10.746;2023-08-12T06:05:08;96447.06;;;20.25;100.00
10014;BME280;45684;48.358;10.746;2023-08-12T06:07:36;96452.31;;;20.37;100.00
10014;BME280;45684;48.358;10.746;2023-08-12T06:10:04;96449.47;;;20.57;100.00
10014;BME280;45684;48.358;10.746;2023-08-12T06:12:32;96454.41;;;20.78;100.00
10014;BME280;45684;48.358;10.746;2023-08-12T06:15:00;96453.22;;;20.75;100.00
10014;BME280;45684;48.358;10.746;2023-08-12T06:17:30;96456.75;;;20.76;100.00
10014;BME280;45684;48.358;10.746;2023-08-12T06:19:57;96453.72;;;20.84;100.00
10014;BME280;45684;48.358;10.746;2023-08-12T06:22:25;96452.69;;;21.00;100.00
10014;BME280;45684;48.358;10.746;2023-08-12T06:24:53;96453.97;;;21.09;100.00
10014;BME280;45684;48.358;10.746;2023-08-12T06:27:21;96457.00;;;21.34;100.00
10014;BME280;45684;48.358;10.746;2023-08-12T06:29:49;96457.66;;;21.65;100.00
10014;BME280;45684;48.358;10.746;2023-08-12T06:32:17;96458.13;;;21.74;100.00
10014;BME280;45684;48.358;10.746;2023-08-12T06:34:46;96453.13;;;21.87;100.00
10014;BME280;45684;48.358;10.746;2023-08-12T06:37:14;96453.84;;;21.80;100.00
10014;BME280;45684;48.358;10.746;2023-08-12T06:39:42;96457.84;;;21.90;100.00
10014;BME280;45684;48.358;10.746;2023-08-12T06:42:10;96446.88;;;22.01;100.00
10014;BME280;45684;48.358;10.746;2023-08-12T06:44:38;96447.41;;;22.17;100.00
10014;BME280;45684;48.358;10.746;2023-08-12T06:47:06;96452.63;;;22.33;100.00
10014;BME280;45684;48.358;10.746;2023-08-12T06:49:34;96458.16;;;22.36;100.00
10014;BME280;45684;48.358;10.746;2023-08-12T06:52:04;96453.50;;;22.51;100.00
10014;BME280;45684;48.358;10.746;2023-08-12T06:54:32;96457.09;;;22.62;100.00
10014;BME280;45684;48.358;10.746;2023-08-12T06:56:59;96451.28;;;22.85;100.00
10014;BME280;45684;48.358;10.746;2023-08-12T06:59:27;96452.50;;;22.99;100.00
10014;BME280;45684;48.358;10.746;2023-08-12T07:01:55;96460.81;;;23.06;100.00
10014;BME280;45684;48.358;10.746;2023-08-12T07:04:23;96462.00;;;23.12;100.00
10014;BME280;45684;48.358;10.746;2023-08-12T07:06:52;96467.13;;;23.10;100.00
10014;BME280;45684;48.358;10.746;2023-08-12T07:09:21;96455.69;;;23.01;100.00
10014;BME280;45684;48.358;10.746;2023-08-12T07:11:49;96455.72;;;23.15;100.00
10014;BME280;45684;48.358;10.746;2023-08-12T07:14:17;96458.47;;;23.19;100.00
10014;BME280;45684;48.358;10.746;2023-08-12T07:16:45;96461.19;;;23.08;100.00
10014;BME280;45684;48.358;10.746;2023-08-12T07:19:13;96465.94;;;23.04;100.00
10014;BME280;45684;48.358;10.746;2023-08-12T07:21:43;96453.69;;;23.01;100.00
10014;BME280;45684;48.358;10.746;2023-08-12T07:24:10;96458.84;;;23.10;100.00
10014;BME280;45684;48.358;10.746;2023-08-12T07:26:40;96464.75;;;23.12;100.00
10014;BME280;45684;48.358;10.746;2023-08-12T07:29:08;96456.53;;;23.23;100.00
10014;BME280;45684;48.358;10.746;2023-08-12T07:31:36;96459.69;;;23.39;100.00
10014;BME280;45684;48.358;10.746;2023-08-12T07:34:04;96462.88;;;23.73;100.00
10014;BME280;45684;48.358;10.746;2023-08-12T07:36:33;96465.66;;;24.02;100.00
10014;BME280;45684;48.358;10.746;2023-08-12T07:39:01;96475.88;;;24.19;100.00
10014;BME280;45684;48.358;10.746;2023-08-12T07:41:29;96481.81;;;24.21;100.00
10014;BME280;45684;48.358;10.746;2023-08-12T07:43:58;96481.78;;;24.39;100.00
10014;BME280;45684;48.358;10.746;2023-08-12T07:46:27;96476.66;;;24.37;100.00
10014;BME280;45684;48.358;10.746;2023-08-12T07:48:55;96479.78;;;24.50;100.00
10014;BME280;45684;48.358;10.746;2023-08-12T07:51:23;96480.94;;;24.53;100.00
10014;BME280;45684;48.358;10.746;2023-08-12T07:53:51;96492.44;;;24.26;100.00
10014;BME280;45684;48.358;10.746;2023-08-12T07:56:19;96482.97;;;24.27;100.00
10014;BME280;45684;48.358;10.746;2023-08-12T07:58:47;96483.38;;;24.43;100.00
10014;BME280;45684;48.358;10.746;2023-08-12T08:01:17;96478.16;;;24.56;100.00
10014;BME280;45684;48.358;10.746;2023-08-12T08:03:45;96474.97;;;24.72;100.00
10014;BME280;45684;48.358;10.746;2023-08-12T08:06:12;96479.69;;;24.75;100.00
10014;BME280;45684;48.358;10.746;2023-08-12T08:08:40;96487.09;;;25.00;98.48
10014;BME280;45684;48.358;10.746;2023-08-12T08:11:08;96482.34;;;25.00;96.25
10014;BME280;45684;48.358;10.746;2023-08-12T08:13:36;96476.41;;;25.05;95.91
10014;BME280;45684;48.358;10.746;2023-08-12T08:16:04;96484.66;;;25.19;93.67
10014;BME280;45684;48.358;10.746;2023-08-12T08:18:33;96484.06;;;25.50;93.66
10014;BME280;45684;48.358;10.746;2023-08-12T08:21:01;96483.94;;;25.67;96.54
10014;BME280;45684;48.358;10.746;2023-08-12T08:23:31;96497.75;;;25.71;94.41
10014;BME280;45684;48.358;10.746;2023-08-12T08:25:59;96487.56;;;25.57;91.55
10014;BME280;45684;48.358;10.746;2023-08-12T08:28:27;96493.38;;;25.74;91.93
10014;BME280;45684;48.358;10.746;2023-08-12T08:30:55;96489.81;;;25.73;93.09
10014;BME280;45684;48.358;10.746;2023-08-12T08:33:23;96495.88;;;25.57;90.47
10014;BME280;45684;48.358;10.746;2023-08-12T08:35:53;96494.97;;;25.75;89.92
10014;BME280;45684;48.358;10.746;2023-08-12T08:38:21;96492.59;;;25.80;91.08
10014;BME280;45684;48.358;10.746;2023-08-12T08:40:49;96484.63;;;25.82;92.36
10014;BME280;45684;48.358;10.746;2023-08-12T08:43:20;96490.00;;;26.04;92.79
10014;BME280;45684;48.358;10.746;2023-08-12T08:45:49;96487.28;;;25.97;92.59
10014;BME280;45684;48.358;10.746;2023-08-12T08:48:20;96493.59;;;26.01;93.02
10014;BME280;45684;48.358;10.746;2023-08-12T08:50:48;96486.53;;;25.92;91.99
10014;BME280;45684;48.358;10.746;2023-08-12T08:53:19;96491.03;;;26.20;91.13
10014;BME280;45684;48.358;10.746;2023-08-12T08:55:48;96483.09;;;26.23;95.73
10014;BME280;45684;48.358;10.746;2023-08-12T08:58:15;96498.25;;;26.11;93.94
10014;BME280;45684;48.358;10.746;2023-08-12T09:00:48;96496.97;;;25.74;96.47
10014;BME280;45684;48.358;10.746;2023-08-12T09:03:17;96495.78;;;25.72;97.79
10014;BME280;45684;48.358;10.746;2023-08-12T09:05:46;96493.06;;;25.64;98.49
10014;BME280;45684;48.358;10.746;2023-08-12T09:08:14;96492.00;;;25.48;95.53
10014;BME280;45684;48.358;10.746;2023-08-12T09:10:45;96490.47;;;25.36;97.62
10014;BME280;45684;48.358;10.746;2023-08-12T09:13:14;96496.06;;;25.32;99.14
10014;BME280;45684;48.358;10.746;2023-08-12T09:15:44;96490.03;;;25.44;100.00
10014;BME280;45684;48.358;10.746;2023-08-12T09:18:12;96495.88;;;25.61;100.00
10014;BME280;45684;48.358;10.746;2023-08-12T09:20:41;96492.59;;;25.80;98.17
10014;BME280;45684;48.358;10.746;2023-08-12T09:23:10;96493.13;;;26.09;96.59
10014;BME280;45684;48.358;10.746;2023-08-12T09:25:41;96494.72;;;26.52;94.74
10014;BME280;45684;48.358;10.746;2023-08-12T09:28:11;96499.56;;;26.78;89.94
10014;BME280;45684;48.358;10.746;2023-08-12T09:30:39;96504.50;;;26.63;88.36
10014;BME280;45684;48.358;10.746;2023-08-12T09:33:08;96505.13;;;26.78;89.18
10014;BME280;45684;48.358;10.746;2023-08-12T09:35:39;96487.63;;;26.81;90.39
10014;BME280;45684;48.358;10.746;2023-08-12T09:38:10;96484.69;;;26.95;91.49
10014;BME280;45684;48.358;10.746;2023-08-12T09:40:39;96483.13;;;27.25;86.76
10014;BME280;45684;48.358;10.746;2023-08-12T09:43:08;96489.91;;;27.78;80.28
10014;BME280;45684;48.358;10.746;2023-08-12T09:45:40;96490.84;;;28.42;76.77
10014;BME280;45684;48.358;10.746;2023-08-12T09:48:09;96486.59;;;29.17;73.70
10014;BME280;45684;48.358;10.746;2023-08-12T09:50:37;96482.78;;;29.27;70.58
10014;BME280;45684;48.358;10.746;2023-08-12T09:53:06;96476.41;;;29.27;70.52
10014;BME280;45684;48.358;10.746;2023-08-12T09:55:37;96486.94;;;29.55;66.11
10014;BME280;45684;48.358;10.746;2023-08-12T09:58:06;96495.00;;;29.86;66.41
10014;BME280;45684;48.358;10.746;2023-08-12T10:00:39;96502.84;;;29.91;64.58
10014;BME280;45684;48.358;10.746;2023-08-12T10:03:10;96505.97;;;30.09;62.57
10014;BME280;45684;48.358;10.746;2023-08-12T10:05:41;96504.25;;;30.32;62.51
10014;BME280;45684;48.358;10.746;2023-08-12T10:08:11;96497.03;;;30.18;61.57
10014;BME280;45684;48.358;10.746;2023-08-12T10:10:41;96492.75;;;30.13;64.39
10014;BME280;45684;48.358;10.746;2023-08-12T10:13:10;96488.63;;;30.02;62.21
10014;BME280;45684;48.358;10.746;2023-08-12T10:15:39;96489.16;;;29.96;61.45
10014;BME280;45684;48.358;10.746;2023-08-12T10:18:08;96495.78;;;30.19;61.95
10014;BME280;45684;48.358;10.746;2023-08-12T10:20:38;96482.88;;;30.09;64.58
10014;BME280;45684;48.358;10.746;2023-08-12T10:23:07;96476.09;;;29.77;67.70
10014;BME280;45684;48.358;10.746;2023-08-12T10:25:37;96469.53;;;29.84;63.69
10014;BME280;45684;48.358;10.746;2023-08-12T10:28:08;96479.44;;;30.50;60.79
10014;BME280;45684;48.358;10.746;2023-08-12T10:30:36;96476.72;;;31.05;56.18
10014;BME280;45684;48.358;10.746;2023-08-12T10:33:05;96468.66;;;31.48;55.07
10014;BME280;45684;48.358;10.746;2023-08-12T10:35:41;96473.56;;;31.95;52.00
10014;BME280;45684;48.358;10.746;2023-08-12T10:38:09;96462.25;;;31.61;51.97
10014;BME280;45684;48.358;10.746;2023-08-12T10:40:38;96467.69;;;31.26;52.59
10014;BME280;45684;48.358;10.746;2023-08-12T10:43:06;96468.72;;;30.78;56.01
10014;BME280;45684;48.358;10.746;2023-08-12T10:45:42;96453.03;;;30.38;61.04
10014;BME280;45684;48.358;10.746;2023-08-12T10:48:18;96448.97;;;29.94;67.79
10014;BME280;45684;48.358;10.746;2023-08-12T10:50:49;96447.16;;;29.71;71.11
10014;BME280;45684;48.358;10.746;2023-08-12T10:53:24;96447.91;;;29.55;70.40
10014;BME280;45684;48.358;10.746;2023-08-12T10:55:58;96442.09;;;29.66;73.00
10014;BME280;45684;48.358;10.746;2023-08-12T10:58:27;96448.44;;;29.99;75.04
10014;BME280;45684;48.358;10.746;2023-08-12T11:00:55;96453.34;;;30.40;66.83
10014;BME280;45684;48.358;10.746;2023-08-12T11:03:25;96443.47;;;30.52;62.07
10014;BME280;45684;48.358;10.746;2023-08-12T11:05:53;96457.81;;;30.38;60.69
10014;BME280;45684;48.358;10.746;2023-08-12T11:08:27;96450.56;;;30.40;66.14
10014;BME280;45684;48.358;10.746;2023-08-12T11:10:56;96444.59;;;30.84;63.91
10014;BME280;45684;48.358;10.746;2023-08-12T11:13:29;96432.84;;;31.43;65.56
10014;BME280;45684;48.358;10.746;2023-08-12T11:16:06;96434.38;;;31.95;56.41
10014;BME280;45684;48.358;10.746;2023-08-12T11:18:36;96441.03;;;32.23;54.56
10014;BME280;45684;48.358;10.746;2023-08-12T11:21:05;96436.09;;;32.28;49.71
10014;BME280;45684;48.358;10.746;2023-08-12T11:23:34;96428.63;;;32.68;46.27
10014;BME280;45684;48.358;10.746;2023-08-12T11:26:03;96426.22;;;32.80;44.54
10014;BME280;45684;48.358;10.746;2023-08-12T11:28:31;96417.06;;;33.10;44.08
10014;BME280;45684;48.358;10.746;2023-08-12T11:30:59;96421.13;;;32.87;43.63
10014;BME280;45684;48.358;10.746;2023-08-12T11:33:28;96407.41;;;32.80;46.63
10014;BME280;45684;48.358;10.746;2023-08-12T11:35:59;96410.72;;;32.44;48.28
10014;BME280;45684;48.358;10.746;2023-08-12T11:38:27;96411.41;;;32.35;52.12
10014;BME280;45684;48.358;10.746;2023-08-12T11:40:55;96404.78;;;32.07;56.72
10014;BME280;45684;48.358;10.746;2023-08-12T11:43:23;96403.03;;;31.75;56.95
10014;BME280;45684;48.358;10.746;2023-08-12T11:45:51;96398.50;;;31.56;55.26
10014;BME280;45684;48.358;10.746;2023-08-12T11:48:20;96389.91;;;31.50;55.85
10014;BME280;45684;48.358;10.746;2023-08-12T11:50:48;96390.34;;;31.48;58.95
10014;BME280;45684;48.358;10.746;2023-08-12T11:53:17;96394.69;;;31.24;61.25
10014;BME280;45684;48.358;10.746;2023-08-12T11:55:45;96394.44;;;31.06;63.96
10014;BME280;45684;48.358;10.746;2023-08-12T11:58:14;96395.69;;;31.05;66.77
10014;BME280;45684;48.358;10.746;2023-08-12T12:00:46;96388.50;;;30.91;70.97
10014;BME280;45684;48.358;10.746;2023-08-12T12:03:16;96393.97;;;30.82;58.64
10014;BME280;45684;48.358;10.746;2023-08-12T12:05:46;96397.09;;;30.71;57.58
10014;BME280;45684;48.358;10.746;2023-08-12T12:08:14;96389.91;;;30.70;58.37
10014;BME280;45684;48.358;10.746;2023-08-12T12:10:43;96386.34;;;30.69;59.43
10014;BME280;45684;48.358;10.746;2023-08-12T12:13:11;96383.25;;;30.80;57.63
10014;BME280;45684;48.358;10.746;2023-08-12T12:15:41;96376.56;;;31.03;60.07
10014;BME280;45684;48.358;10.746;2023-08-12T12:18:10;96378.72;;;31.24;59.24
10014;BME280;45684;48.358;10.746;2023-08-12T12:20:42;96379.94;;;31.62;55.85
10014;BME280;45684;48.358;10.746;2023-08-12T12:23:20;96389.69;;;32.05;52.26
10014;BME280;45684;48.358;10.746;2023-08-12T12:25:57;96396.09;;;31.92;52.14
10014;BME280;45684;48.358;10.746;2023-08-12T12:28:24;96380.00;;;31.84;53.53
10014;BME280;45684;48.358;10.746;2023-08-12T12:30:53;96386.47;;;32.50;51.30
10014;BME280;45684;48.358;10.746;2023-08-12T12:33:20;96381.34;;;32.70;50.76
10014;BME280;45684;48.358;10.746;2023-08-12T12:35:48;96374.19;;;32.69;50.94
10014;BME280;45684;48.358;10.746;2023-08-12T12:38:25;96383.75;;;33.43;49.25
10014;BME280;45684;48.358;10.746;2023-08-12T12:40:54;96381.28;;;33.45;42.55
10014;BME280;45684;48.358;10.746;2023-08-12T12:43:22;96382.25;;;33.61;41.79
10014;BME280;45684;48.358;10.746;2023-08-12T12:45:50;96384.81;;;33.06;41.67
10014;BME280;45684;48.358;10.746;2023-08-12T12:48:18;96391.22;;;32.84;39.85
10014;BME280;45684;48.358;10.746;2023-08-12T12:50:46;96387.41;;;32.47;41.32